Time;durP1;ratioP1;P1;durP2;ratioP2;P2;SDS_P1;SDS_P2;PMS_P1;PMS_P2;Temp;Humidity;BMP_temperature;BMP_pressure;BME280_temperature;BME280_humidity;BME280_pressure;Samples;Min_cycle;Max_cycle;Signal;HPM_P1;HPM_P2
2022/01/03 19:48:15;;;;;;;22.48;5.40;;;;;;;9.11;100.00;100460.94;11763252;24;20130;-79
2022/01/03 19:53:16;;;;;;;21.40;5.28;;;;;;;9.12;100.00;100458.00;10102526;29;20055;-79
2022/01/03 19:58:16;;;;;;;18.10;4.80;;;;;;;9.16;100.00;100444.97;10100006;29;20392;-81
2022/01/03 20:03:17;;;;;;;14.63;5.00;;;;;;;9.19;100.00;100444.53;10080912;29;20052;-79
2022/01/03 20:08:17;;;;;;;17.33;4.72;;;;;;;9.16;100.00;100432.28;10081799;29;20032;-79
2022/01/03 20:13:18;;;;;;;28.48;8.43;;;;;;;9.27;100.00;100439.00;10098319;29;20049;-79
2022/01/03 20:18:18;;;;;;;25.55;6.13;;;;;;;9.32;100.00;100425.72;10115250;29;20048;-79
2022/01/03 20:23:19;;;;;;;22.65;6.03;;;;;;;9.35;100.00;100422.63;10135544;29;20063;-79
2022/01/03 20:28:20;;;;;;;27.60;5.90;;;;;;;9.35;100.00;100400.13;10118837;29;20051;-77
2022/01/03 20:33:20;;;;;;;13.02;4.25;;;;;;;9.32;100.00;100396.81;10135431;29;20044;-74
2022/01/03 20:38:21;;;;;;;28.48;5.70;;;;;;;9.32;100.00;100388.72;10135506;29;20045;-80
2022/01/03 20:43:22;;;;;;;22.83;5.22;;;;;;;9.38;100.00;100380.81;10105666;29;20037;-78
2022/01/03 20:48:22;;;;;;;16.40;5.40;;;;;;;9.34;100.00;100375.00;10105250;29;20077;-79
2022/01/03 20:53:22;;;;;;;16.63;3.35;;;;;;;9.32;100.00;100385.19;10088244;29;20389;-79
2022/01/03 20:58:23;;;;;;;24.05;4.25;;;;;;;9.39;100.00;100386.03;10089153;29;20100;-80
2022/01/03 21:03:23;;;;;;;13.65;5.50;;;;;;;9.39;100.00;100387.91;10102492;29;20037;-78
2022/01/03 21:08:24;;;;;;;20.55;4.55;;;;;;;9.35;100.00;100370.41;10087922;29;20036;-79
2022/01/03 21:13:24;;;;;;;16.90;6.07;;;;;;;9.33;100.00;100362.53;10086804;29;20041;-80
2022/01/03 21:18:24;;;;;;;11.25;5.10;;;;;;;9.32;100.00;100368.97;10085368;29;20085;-78
2022/01/03 21:23:25;;;;;;;21.40;5.70;;;;;;;9.37;100.00;100355.69;10089141;29;20061;-79
2022/01/03 21:28:25;;;;;;;24.13;5.05;;;;;;;9.34;100.00;100353.38;10076461;29;20064;-74
2022/01/03 21:33:26;;;;;;;17.20;5.97;;;;;;;9.38;100.00;100338.44;10107477;29;20041;-78
2022/01/03 21:38:26;;;;;;;18.17;5.65;;;;;;;9.40;100.00;100341.75;10086161;29;20468;-78
2022/01/03 21:43:26;;;;;;;10.93;5.45;;;;;;;9.42;100.00;100333.47;10103011;29;20400;-80
2022/01/03 21:48:31;;;;;;;27.13;7.18;;;;;;;9.46;100.00;100319.31;10102276;29;20101;-79
2022/01/03 21:53:32;;;;;;;10.02;4.55;;;;;;;9.42;100.00;100320.78;10103454;29;20412;-80
2022/01/03 21:58:33;;;;;;;19.92;4.65;;;;;;;9.41;100.00;100315.56;10087480;29;20055;-77
2022/01/03 22:03:34;;;;;;;19.77;6.32;;;;;;;9.41;100.00;100304.75;10103087;29;20037;-79
2022/01/03 22:08:34;;;;;;;18.30;4.65;;;;;;;9.40;100.00;100303.09;10102038;29;20041;-80
2022/01/03 22:13:36;;;;;;;11.77;4.47;;;;;;;9.41;100.00;100297.50;10101999;29;20444;-78
2022/01/03 22:18:36;;;;;;;17.17;6.00;;;;;;;9.39;100.00;100291.47;10101340;29;20044;-78
2022/01/03 22:23:36;;;;;;;15.52;5.38;;;;;;;9.37;100.00;100287.28;10101454;29;20068;-78
2022/01/03 22:28:37;;;;;;;28.10;8.13;;;;;;;9.36;100.00;100277.53;10100863;29;20033;-78
2022/01/03 22:33:37;;;;;;;18.10;5.13;;;;;;;9.31;100.00;100280.81;10084467;29;20064;-79
2022/01/03 22:38:38;;;;;;;12.10;5.47;;;;;;;9.22;100.00;100290.16;10083761;29;20041;-78
2022/01/03 22:43:40;;;;;;;11.30;5.53;;;;;;;9.14;100.00;100276.84;10100393;29;20041;-78
2022/01/03 22:48:41;;;;;;;13.23;5.45;;;;;;;9.15;100.00;100259.59;10083176;29;20051;-78
2022/01/03 22:53:41;;;;;;;15.88;5.35;;;;;;;9.20;100.00;100270.63;10100357;29;20065;-78
2022/01/03 22:58:42;;;;;;;15.30;6.50;;;;;;;9.14;100.00;100249.84;10083496;29;20136;-78
2022/01/03 23:03:42;;;;;;;37.20;6.85;;;;;;;9.18;100.00;100240.28;10099382;29;20048;-78
2022/01/03 23:08:43;;;;;;;17.75;7.35;;;;;;;9.20;100.00;100244.44;10098280;29;20425;-78
2022/01/03 23:13:44;;;;;;;13.73;5.32;;;;;;;9.15;100.00;100236.09;10098982;29;20044;-79
2022/01/03 23:18:44;;;;;;;20.98;6.65;;;;;;;9.20;100.00;100228.25;10097996;29;20033;-78
2022/01/03 23:23:46;;;;;;;13.63;4.65;;;;;;;9.17;100.00;100222.41;10098432;29;20500;-79
2022/01/03 23:28:46;;;;;;;10.55;4.47;;;;;;;9.19;100.00;100225.72;10098453;29;20049;-78
2022/01/03 23:33:47;;;;;;;13.07;4.75;;;;;;;9.23;100.00;100221.59;10098866;29;20504;-78
2022/01/03 23:38:48;;;;;;;9.18;5.55;;;;;;;9.19;100.00;100209.50;10098626;29;20549;-78
2022/01/03 23:43:48;;;;;;;20.65;5.97;;;;;;;9.17;100.00;100214.31;10103919;29;20036;-79
2022/01/03 23:48:49;;;;;;;16.38;5.63;;;;;;;9.17;100.00;100206.22;10106091;29;20048;-78
2022/01/03 23:53:49;;;;;;;28.88;7.88;;;;;;;9.20;100.00;100189.59;10097917;29;20093;-78
2022/01/03 23:58:50;;;;;;;16.35;6.57;;;;;;;9.17;100.00;100179.19;10081249;29;20408;-78
